createdAt,value
2022-10-13T00:00:32.806Z,5.25
2022-10-13T00:03:01.300Z,4.93
2022-10-13T00:05:29.504Z,5.70
2022-10-13T00:07:56.900Z,5.10
2022-10-13T00:10:24.653Z,4.85
2022-10-13T00:12:51.922Z,5.15
2022-10-13T00:15:19.435Z,4.53
2022-10-13T00:17:46.073Z,4.68
2022-10-13T00:20:12.962Z,4.93
2022-10-13T00:22:39.565Z,5.50
2022-10-13T00:25:06.710Z,6.15
2022-10-13T00:27:33.257Z,5.60
2022-10-13T00:29:59.886Z,6.25
2022-10-13T00:32:26.628Z,5.75
2022-10-13T00:34:53.335Z,5.80
2022-10-13T00:37:19.889Z,5.38
2022-10-13T00:39:46.512Z,4.70
2022-10-13T00:42:13.524Z,5.30
2022-10-13T00:44:58.744Z,5.57
2022-10-13T00:47:47.106Z,5.03
2022-10-13T00:50:17.954Z,5.63
2022-10-13T00:52:45.148Z,5.22
2022-10-13T00:55:16.620Z,5.25
2022-10-13T00:57:46.645Z,5.75
2022-10-13T01:00:13.911Z,5.32
2022-10-13T01:02:40.981Z,5.15
2022-10-13T01:05:08.248Z,4.80
2022-10-13T01:07:35.490Z,4.70
2022-10-13T01:10:03.188Z,4.97
2022-10-13T01:12:42.037Z,5.00
2022-10-13T01:15:19.351Z,5.03
2022-10-13T01:18:03.844Z,5.03
2022-10-13T01:20:39.488Z,5.75
2022-10-13T01:23:33.960Z,5.65
2022-10-13T01:26:18.940Z,4.97
2022-10-13T01:29:24.576Z,5.05
2022-10-13T01:32:11.900Z,5.28
2022-10-13T01:34:41.573Z,5.63
2022-10-13T01:37:32.643Z,5.28
2022-10-13T01:40:17.850Z,4.80
2022-10-13T01:42:51.011Z,5.35
2022-10-13T01:45:21.532Z,5.13
2022-10-13T01:47:50.302Z,5.60
2022-10-13T01:50:19.430Z,5.20
2022-10-13T01:52:48.351Z,5.63
2022-10-13T01:55:14.947Z,5.22
2022-10-13T01:57:43.668Z,4.57
2022-10-13T02:00:19.746Z,4.47
2022-10-13T02:03:11.162Z,5.80
2022-10-13T02:05:57.451Z,4.80
2022-10-13T02:08:34.340Z,5.22
2022-10-13T02:11:17.572Z,4.40
2022-10-13T02:14:16.668Z,5.20
2022-10-13T02:16:45.853Z,5.90
2022-10-13T02:19:16.038Z,4.97
2022-10-13T02:21:43.547Z,4.07
2022-10-13T02:24:10.397Z,5.07
2022-10-13T02:26:38.185Z,3.90
2022-10-13T02:29:10.869Z,5.10
2022-10-13T02:31:38.466Z,4.63
2022-10-13T02:34:05.499Z,4.03
2022-10-13T02:36:32.258Z,4.47
2022-10-13T02:38:59.126Z,4.47
2022-10-13T02:41:25.761Z,5.13
2022-10-13T02:43:52.536Z,5.43
2022-10-13T02:46:19.130Z,5.15
2022-10-13T02:48:45.683Z,5.18
2022-10-13T02:51:12.264Z,6.18
2022-10-13T02:53:38.850Z,5.85
2022-10-13T02:56:06.083Z,13.40
2022-10-13T02:58:32.715Z,182.52
2022-10-13T03:01:14.944Z,280.35
2022-10-13T03:03:41.590Z,186.05
2022-10-13T03:06:08.460Z,70.35
2022-10-13T03:08:35.713Z,12.98
2022-10-13T03:11:02.356Z,9.35
2022-10-13T03:13:28.946Z,6.35
2022-10-13T03:15:55.549Z,10.23
2022-10-13T03:18:22.511Z,5.10
2022-10-13T03:20:57.105Z,5.20
2022-10-13T03:23:23.721Z,5.72
2022-10-13T03:25:50.344Z,6.20
2022-10-13T03:28:17.263Z,6.60
2022-10-13T03:30:43.885Z,6.35
2022-10-13T03:33:11.069Z,5.68
2022-10-13T03:35:37.648Z,5.60
2022-10-13T03:38:04.584Z,4.70
2022-10-13T03:40:31.141Z,5.47
2022-10-13T03:42:57.703Z,4.88
2022-10-13T03:45:24.351Z,6.00
2022-10-13T03:47:50.933Z,6.20
2022-10-13T03:50:17.611Z,6.43
2022-10-13T03:52:44.212Z,6.68
2022-10-13T03:55:10.873Z,7.40
2022-10-13T03:57:37.480Z,5.82
2022-10-13T04:00:07.935Z,6.68
2022-10-13T04:02:34.490Z,8.32
2022-10-13T04:05:01.072Z,5.32
2022-10-13T04:07:27.679Z,5.50
2022-10-13T04:09:54.226Z,5.00
2022-10-13T04:12:21.347Z,5.18
2022-10-13T04:14:48.151Z,4.80
2022-10-13T04:17:14.763Z,6.65
2022-10-13T04:19:41.303Z,4.63
2022-10-13T04:22:07.855Z,4.93
2022-10-13T04:24:34.462Z,4.45
2022-10-13T04:27:01.045Z,5.38
2022-10-13T04:29:27.687Z,4.88
2022-10-13T04:31:54.216Z,5.95
2022-10-13T04:34:20.791Z,5.40
2022-10-13T04:36:50.555Z,4.75
2022-10-13T04:39:18.269Z,5.25
2022-10-13T04:41:45.621Z,4.82
2022-10-13T04:44:12.182Z,5.78
2022-10-13T04:46:38.773Z,5.75
2022-10-13T04:49:05.328Z,5.50
2022-10-13T04:51:32.354Z,5.82
2022-10-13T04:54:01.416Z,6.55
2022-10-13T04:56:28.562Z,5.45
2022-10-13T04:58:55.185Z,6.10
2022-10-13T05:01:24.311Z,5.45
2022-10-13T05:03:55.784Z,5.28
2022-10-13T05:06:25.884Z,5.05
2022-10-13T05:08:53.154Z,6.28
2022-10-13T05:11:22.978Z,6.53
2022-10-13T05:13:50.049Z,19.08
2022-10-13T05:16:18.669Z,18.60
2022-10-13T05:18:45.839Z,21.45
2022-10-13T05:21:14.794Z,20.63
2022-10-13T05:23:42.078Z,20.48
2022-10-13T05:26:11.430Z,20.02
2022-10-13T05:28:39.306Z,15.48
2022-10-13T05:31:13.314Z,15.48
2022-10-13T05:33:40.611Z,17.08
2022-10-13T05:36:09.967Z,16.08
2022-10-13T05:38:36.617Z,15.07
2022-10-13T05:41:09.575Z,15.02
2022-10-13T05:43:37.383Z,11.40
2022-10-13T05:46:04.356Z,11.65
2022-10-13T05:48:31.585Z,11.50
2022-10-13T05:51:00.628Z,12.48
2022-10-13T05:53:31.248Z,10.35
2022-10-13T05:56:06.251Z,9.40
2022-10-13T05:58:44.653Z,9.50
2022-10-13T06:01:15.693Z,8.38
2022-10-13T06:03:43.307Z,10.18
2022-10-13T06:06:09.971Z,10.95
2022-10-13T06:08:37.856Z,12.90
2022-10-13T06:11:05.640Z,7.78
2022-10-13T06:13:33.774Z,6.85
2022-10-13T06:16:00.926Z,5.78
2022-10-13T06:18:27.666Z,6.38
2022-10-13T06:20:54.225Z,9.00
2022-10-13T06:23:20.808Z,7.43
2022-10-13T06:25:51.917Z,5.53
2022-10-13T06:28:19.599Z,4.18
2022-10-13T06:30:49.547Z,4.25
2022-10-13T06:33:16.184Z,4.85
2022-10-13T06:35:42.784Z,5.50
2022-10-13T06:38:09.991Z,5.68
2022-10-13T06:40:36.707Z,5.47
2022-10-13T06:43:03.570Z,5.95
2022-10-13T06:45:30.315Z,5.95
2022-10-13T06:47:56.888Z,8.80
2022-10-13T06:50:24.345Z,5.60
2022-10-13T06:52:50.887Z,4.97
2022-10-13T06:55:17.578Z,5.75
2022-10-13T06:57:44.225Z,5.13
2022-10-13T07:00:11.563Z,5.35
2022-10-13T07:02:38.151Z,4.90
2022-10-13T07:05:05.011Z,5.55
2022-10-13T07:07:31.647Z,4.13
2022-10-13T07:09:58.279Z,4.93
2022-10-13T07:12:24.847Z,4.32
2022-10-13T07:14:51.413Z,4.30
2022-10-13T07:17:18.482Z,4.82
2022-10-13T07:19:48.370Z,5.38
2022-10-13T07:22:15.613Z,4.65
2022-10-13T07:24:42.757Z,8.90
2022-10-13T07:27:09.369Z,5.38
2022-10-13T07:29:36.130Z,4.75
2022-10-13T07:32:02.778Z,4.93
2022-10-13T07:34:29.405Z,4.45
2022-10-13T07:36:55.991Z,4.28
2022-10-13T07:39:22.527Z,3.60
2022-10-13T07:41:51.223Z,3.63
2022-10-13T07:44:18.328Z,3.38
2022-10-13T07:46:45.116Z,2.65
2022-10-13T07:49:15.287Z,2.90
2022-10-13T07:51:44.126Z,4.20
2022-10-13T07:54:11.069Z,3.92
2022-10-13T07:56:38.437Z,2.67
2022-10-13T07:59:05.401Z,3.55
2022-10-13T08:01:32.273Z,3.38
2022-10-13T08:03:59.337Z,3.33
2022-10-13T08:06:26.326Z,3.78
2022-10-13T08:08:53.173Z,4.75
2022-10-13T08:11:19.824Z,4.00
2022-10-13T08:13:51.299Z,3.35
2022-10-13T08:16:18.952Z,3.70
2022-10-13T08:18:46.551Z,3.50
2022-10-13T08:21:56.751Z,3.22
2022-10-13T08:24:10.992Z,3.50
2022-10-13T08:26:37.615Z,3.57
2022-10-13T08:31:55.870Z,3.92
2022-10-13T08:34:23.659Z,3.70
2022-10-13T08:36:53.484Z,4.47
2022-10-13T08:39:21.675Z,4.18
2022-10-13T08:41:48.464Z,4.85
2022-10-13T08:45:16.177Z,4.13
2022-10-13T08:47:27.262Z,4.93
2022-10-13T08:49:59.994Z,4.75
2022-10-13T08:54:56.380Z,4.45
2022-10-13T08:57:23.710Z,6.22
2022-10-13T08:59:52.594Z,4.07
2022-10-13T09:02:31.003Z,5.07
2022-10-13T09:05:02.668Z,5.43
2022-10-13T09:07:34.705Z,10.90
2022-10-13T09:10:01.308Z,9.13
2022-10-13T09:12:28.078Z,5.25
2022-10-13T09:15:09.965Z,3.92
2022-10-13T09:17:38.867Z,4.32
2022-10-13T09:20:18.451Z,4.00
2022-10-13T09:22:59.895Z,4.70
2022-10-13T09:25:26.598Z,4.00
2022-10-13T09:27:54.754Z,4.30
2022-10-13T09:30:31.427Z,5.80
2022-10-13T09:33:13.422Z,4.22
2022-10-13T09:35:48.793Z,4.47
2022-10-13T09:38:22.840Z,4.65
2022-10-13T09:41:16.737Z,5.72
2022-10-13T09:43:59.602Z,4.00
2022-10-13T09:46:34.129Z,4.50
2022-10-13T09:49:07.098Z,4.18
2022-10-13T09:51:40.117Z,4.65
2022-10-13T09:54:24.665Z,4.38
2022-10-13T09:56:58.228Z,4.93
2022-10-13T10:02:04.156Z,4.20
2022-10-13T10:04:36.416Z,4.68
2022-10-13T10:07:12.305Z,3.78
2022-10-13T10:09:47.645Z,5.28
2022-10-13T10:12:20.265Z,5.72
2022-10-13T10:14:50.207Z,4.53
2022-10-13T10:17:41.216Z,4.65
2022-10-13T10:20:37.275Z,5.20
2022-10-13T10:23:18.637Z,4.30
2022-10-13T10:25:57.462Z,4.88
2022-10-13T10:28:36.330Z,4.25
2022-10-13T10:31:08.900Z,4.97
2022-10-13T10:33:47.747Z,4.80
2022-10-13T10:36:27.570Z,4.15
2022-10-13T10:39:20.171Z,4.53
2022-10-13T10:41:55.748Z,4.00
2022-10-13T10:44:30.860Z,3.63
2022-10-13T10:47:04.219Z,4.00
2022-10-13T10:49:39.732Z,4.28
2022-10-13T10:52:11.268Z,4.68
2022-10-13T10:54:49.281Z,4.32
2022-10-13T10:57:25.565Z,4.38
2022-10-13T11:00:11.789Z,3.70
2022-10-13T11:02:59.387Z,4.18
2022-10-13T11:05:49.300Z,4.20
2022-10-13T11:08:28.198Z,4.28
2022-10-13T11:11:24.693Z,4.05
2022-10-13T11:13:57.720Z,5.15
2022-10-13T11:16:33.716Z,4.60
2022-10-13T11:19:06.325Z,5.28
2022-10-13T11:21:54.843Z,4.33
2022-10-13T11:24:45.185Z,4.90
2022-10-13T11:27:14.720Z,5.20
2022-10-13T11:29:44.237Z,5.20
2022-10-13T11:32:36.907Z,4.43
2022-10-13T11:35:06.083Z,5.63
2022-10-13T11:37:43.929Z,5.03
2022-10-13T11:40:17.476Z,4.65
2022-10-13T11:42:52.281Z,4.95
2022-10-13T11:45:33.335Z,5.00
2022-10-13T11:48:05.802Z,4.82
2022-10-13T11:51:03.112Z,5.57
2022-10-13T11:53:43.640Z,5.15
2022-10-13T11:56:36.326Z,5.10
2022-10-13T11:59:05.989Z,5.85
2022-10-13T12:01:32.643Z,5.57
2022-10-13T12:03:59.194Z,4.40
2022-10-13T12:06:34.108Z,4.97
2022-10-13T12:09:03.977Z,4.85
2022-10-13T12:11:35.504Z,6.05
2022-10-13T12:14:05.642Z,7.22
2022-10-13T12:16:32.218Z,6.28
2022-10-13T12:19:29.668Z,5.38
2022-10-13T12:21:59.685Z,5.10
2022-10-13T12:24:29.147Z,5.18
2022-10-13T12:26:56.321Z,5.80
2022-10-13T12:29:31.074Z,5.28
2022-10-13T12:32:00.201Z,5.03
2022-10-13T12:34:33.314Z,5.10
2022-10-13T12:37:34.082Z,4.75
2022-10-13T12:40:02.217Z,8.43
2022-10-13T12:42:33.772Z,5.05
2022-10-13T12:45:02.207Z,5.82
2022-10-13T12:47:58.276Z,5.32
2022-10-13T12:50:30.588Z,5.40
2022-10-13T12:53:05.830Z,4.93
2022-10-13T12:55:33.190Z,5.22
2022-10-13T12:58:00.562Z,5.95
2022-10-13T13:00:29.660Z,5.18
2022-10-13T13:03:01.353Z,5.43
2022-10-13T13:05:40.702Z,5.60
2022-10-13T13:08:24.554Z,5.35
2022-10-13T13:11:25.439Z,5.75
2022-10-13T13:13:52.010Z,5.53
2022-10-13T13:16:21.500Z,5.50
2022-10-13T13:18:50.179Z,4.70
2022-10-13T13:21:19.140Z,5.18
2022-10-13T13:23:51.208Z,5.20
2022-10-13T13:26:23.009Z,5.32
2022-10-13T13:28:52.173Z,4.65
2022-10-13T13:31:21.596Z,4.80
2022-10-13T13:33:48.776Z,5.38
2022-10-13T13:36:23.899Z,5.32
2022-10-13T13:38:50.930Z,4.72
2022-10-13T13:41:17.838Z,5.82
2022-10-13T13:43:44.651Z,9.93
2022-10-13T13:46:20.891Z,14.27
2022-10-13T13:48:47.532Z,7.90
2022-10-13T13:51:14.327Z,7.78
2022-10-13T13:53:41.057Z,9.30
2022-10-13T13:56:14.994Z,6.95
2022-10-13T13:58:42.553Z,7.20
2022-10-13T14:01:10.022Z,6.80
2022-10-13T14:03:36.651Z,6.03
2022-10-13T14:06:03.441Z,5.85
2022-10-13T14:08:31.963Z,6.28
2022-10-13T14:10:58.933Z,5.93
2022-10-13T14:13:25.573Z,5.82
2022-10-13T14:15:58.985Z,5.78
2022-10-13T14:18:26.068Z,6.05
2022-10-13T14:20:53.041Z,5.80
2022-10-13T14:23:19.950Z,5.47
2022-10-13T14:25:46.555Z,4.22
2022-10-13T14:28:17.331Z,4.07
2022-10-13T14:30:44.922Z,3.70
2022-10-13T14:33:11.487Z,3.42
2022-10-13T14:35:38.028Z,3.78
2022-10-13T14:38:04.646Z,3.35
2022-10-13T14:40:31.259Z,3.38
2022-10-13T14:42:59.035Z,4.15
2022-10-13T14:45:25.685Z,3.25
2022-10-13T14:47:53.649Z,3.78
2022-10-13T14:50:20.286Z,3.67
2022-10-13T14:52:46.907Z,3.35
2022-10-13T14:55:13.563Z,3.83
2022-10-13T14:57:40.381Z,3.13
2022-10-13T15:00:07.540Z,3.25
2022-10-13T15:02:34.161Z,3.58
2022-10-13T15:05:00.798Z,3.47
2022-10-13T15:07:27.381Z,3.50
2022-10-13T15:10:04.975Z,3.72
2022-10-13T15:12:32.494Z,3.28
2022-10-13T15:14:59.108Z,3.40
2022-10-13T15:17:25.821Z,3.70
2022-10-13T15:19:52.388Z,3.40
2022-10-13T15:22:19.167Z,3.30
2022-10-13T15:24:46.094Z,3.10
2022-10-13T15:27:12.688Z,3.65
2022-10-13T15:29:39.259Z,3.65
2022-10-13T15:32:11.489Z,4.13
2022-10-13T15:34:41.522Z,3.90
2022-10-13T15:37:08.116Z,3.50
2022-10-13T15:39:34.876Z,3.58
2022-10-13T15:42:01.619Z,3.25
2022-10-13T15:44:30.864Z,3.95
2022-10-13T15:47:07.894Z,3.40
2022-10-13T15:49:39.263Z,3.25
2022-10-13T15:52:05.955Z,3.38
2022-10-13T15:54:32.702Z,2.72
2022-10-13T15:56:59.846Z,2.58
2022-10-13T15:59:26.470Z,3.03
2022-10-13T16:01:53.039Z,3.35
2022-10-13T16:04:19.622Z,3.60
2022-10-13T16:06:46.203Z,3.80
2022-10-13T16:09:12.765Z,5.85
2022-10-13T16:11:39.347Z,5.13
2022-10-13T16:14:05.923Z,4.82
2022-10-13T16:16:32.512Z,3.83
2022-10-13T16:19:00.004Z,7.18
2022-10-13T16:21:27.022Z,3.25
2022-10-13T16:23:53.720Z,2.75
2022-10-13T16:26:20.383Z,3.78
2022-10-13T16:28:47.077Z,2.65
2022-10-13T16:31:16.107Z,2.03
2022-10-13T16:33:44.326Z,2.90
2022-10-13T16:36:19.189Z,2.88
2022-10-13T16:38:47.097Z,4.93
2022-10-13T16:41:16.923Z,7.15
2022-10-13T16:43:44.854Z,10.18
2022-10-13T16:46:13.812Z,8.35
2022-10-13T16:48:41.736Z,6.78
2022-10-13T16:51:10.466Z,6.82
2022-10-13T16:53:38.601Z,4.40
2022-10-13T16:56:07.048Z,5.38
2022-10-13T16:58:34.182Z,8.27
2022-10-13T17:01:05.978Z,6.82
2022-10-13T17:03:32.617Z,6.00
2022-10-13T17:05:59.297Z,5.82
2022-10-13T17:08:26.175Z,6.15
2022-10-13T17:10:57.997Z,5.07
2022-10-13T17:13:25.248Z,5.35
2022-10-13T17:15:53.208Z,5.63
2022-10-13T17:18:20.178Z,5.65
2022-10-13T17:20:58.626Z,11.65
2022-10-13T17:23:25.914Z,11.27
2022-10-13T17:25:54.571Z,9.77
2022-10-13T17:28:22.073Z,10.40
2022-10-13T17:30:59.833Z,9.77
2022-10-13T17:33:31.166Z,9.40
2022-10-13T17:36:04.667Z,8.50
2022-10-13T17:38:31.296Z,8.10
2022-10-13T17:41:02.516Z,12.80
2022-10-13T17:43:30.051Z,15.85
2022-10-13T17:46:30.906Z,16.80
2022-10-13T17:48:55.197Z,13.35
2022-10-13T17:51:22.757Z,12.65
2022-10-13T17:53:50.973Z,10.23
2022-10-13T17:56:21.122Z,7.70
2022-10-13T17:58:48.549Z,4.85
2022-10-13T18:01:23.801Z,5.40
2022-10-13T18:03:53.432Z,5.90
2022-10-13T18:06:20.916Z,4.95
2022-10-13T18:08:48.136Z,5.80
2022-10-13T18:11:17.096Z,4.50
2022-10-13T18:13:45.199Z,3.42
2022-10-13T18:16:18.255Z,3.10
2022-10-13T18:18:45.412Z,3.60
2022-10-13T18:21:15.549Z,4.35
2022-10-13T18:23:42.224Z,4.40
2022-10-13T18:26:12.430Z,4.55
2022-10-13T18:28:45.828Z,5.05
2022-10-13T18:31:15.308Z,5.30
2022-10-13T18:33:41.926Z,4.57
2022-10-13T18:36:33.428Z,4.28
2022-10-13T18:39:03.415Z,4.85
2022-10-13T18:41:31.224Z,6.35
2022-10-13T18:43:58.009Z,9.48
2022-10-13T18:46:24.752Z,8.88
2022-10-13T18:48:51.429Z,8.45
2022-10-13T18:51:19.526Z,7.75
2022-10-13T18:53:50.575Z,5.35
2022-10-13T18:56:28.952Z,4.95
2022-10-13T18:58:59.649Z,5.88
2022-10-13T19:01:28.993Z,4.38
2022-10-13T19:03:55.876Z,5.80
2022-10-13T19:06:29.698Z,7.07
2022-10-13T19:09:01.267Z,6.40
2022-10-13T19:11:29.629Z,4.88
2022-10-13T19:13:57.415Z,7.00
2022-10-13T19:16:26.196Z,9.05
2022-10-13T19:18:53.113Z,7.13
2022-10-13T19:21:21.451Z,8.45
2022-10-13T19:23:49.195Z,7.68
2022-10-13T19:26:19.659Z,7.40
2022-10-13T19:28:46.795Z,9.30
2022-10-13T19:31:19.192Z,7.63
2022-10-13T19:33:47.276Z,8.07
2022-10-13T19:36:34.936Z,7.10
2022-10-13T19:39:04.674Z,7.43
2022-10-13T19:41:32.492Z,5.70
2022-10-13T19:43:59.747Z,14.05
2022-10-13T19:46:26.550Z,11.63
2022-10-13T19:48:53.122Z,5.75
2022-10-13T19:51:20.169Z,5.10
2022-10-13T19:53:46.767Z,6.85
2022-10-13T19:56:25.930Z,6.43
2022-10-13T19:58:53.326Z,5.97
2022-10-13T20:01:21.084Z,4.57
2022-10-13T20:03:47.835Z,5.45
2022-10-13T20:06:15.220Z,5.40
2022-10-13T20:08:42.017Z,5.07
2022-10-13T20:11:10.563Z,4.90
2022-10-13T20:13:37.388Z,4.20
2022-10-13T20:16:09.680Z,4.18
2022-10-13T20:18:37.460Z,3.78
2022-10-13T20:21:05.873Z,3.63
2022-10-13T20:23:32.865Z,3.60
2022-10-13T20:26:07.653Z,4.20
2022-10-13T20:28:40.532Z,3.90
2022-10-13T20:31:10.553Z,4.63
2022-10-13T20:33:37.316Z,3.88
2022-10-13T20:36:07.451Z,4.55
2022-10-13T20:38:38.484Z,5.38
2022-10-13T20:41:14.525Z,4.65
2022-10-13T20:43:41.534Z,4.82
2022-10-13T20:46:08.799Z,5.18
2022-10-13T20:48:58.167Z,4.32
2022-10-13T20:51:24.349Z,5.65
2022-10-13T20:53:51.217Z,10.48
2022-10-13T20:56:23.538Z,32.47
2022-10-13T20:58:50.995Z,21.42
2022-10-13T21:01:19.497Z,24.20
2022-10-13T21:03:46.596Z,18.30
2022-10-13T21:06:14.436Z,9.52
2022-10-13T21:08:41.181Z,9.75
2022-10-13T21:11:12.559Z,7.13
2022-10-13T21:13:40.897Z,7.00
2022-10-13T21:16:17.269Z,5.25
2022-10-13T21:18:48.082Z,3.45
2022-10-13T21:21:19.962Z,5.43
2022-10-13T21:23:51.150Z,5.30
2022-10-13T21:26:21.575Z,4.93
2022-10-13T21:28:50.000Z,4.25
2022-10-13T21:31:18.540Z,5.20
2022-10-13T21:33:45.358Z,5.70
2022-10-13T21:36:18.246Z,5.50
2022-10-13T21:38:46.270Z,5.90
2022-10-13T21:41:14.371Z,5.68
2022-10-13T21:43:41.193Z,4.95
2022-10-13T21:46:08.497Z,4.82
2022-10-13T21:48:35.594Z,5.95
2022-10-13T21:51:17.554Z,5.93
2022-10-13T21:53:47.680Z,6.43
2022-10-13T21:56:14.298Z,6.68
2022-10-13T21:58:40.997Z,6.50
2022-10-13T22:01:07.824Z,6.45
2022-10-13T22:03:34.935Z,7.78
2022-10-13T22:06:19.212Z,6.38
2022-10-13T22:08:48.524Z,5.65
2022-10-13T22:11:16.212Z,5.55
2022-10-13T22:13:42.847Z,5.80
2022-10-13T22:16:12.543Z,4.22
2022-10-13T22:18:39.081Z,4.13
2022-10-13T22:21:09.038Z,3.85
2022-10-13T22:23:35.875Z,3.08
2022-10-13T22:26:02.458Z,3.92
2022-10-13T22:28:33.441Z,3.10
2022-10-13T22:31:07.703Z,2.67
2022-10-13T22:33:35.587Z,2.70
2022-10-13T22:36:15.752Z,4.65
2022-10-13T22:38:44.168Z,3.67
2022-10-13T22:41:13.035Z,3.92
2022-10-13T22:43:39.655Z,3.00
2022-10-13T22:46:06.444Z,3.17
2022-10-13T22:48:38.228Z,2.83
2022-10-13T22:51:07.693Z,2.78
2022-10-13T22:53:34.841Z,3.97
2022-10-13T22:56:05.962Z,2.30
2022-10-13T22:58:32.563Z,2.13
2022-10-13T23:01:05.598Z,2.30
2022-10-13T23:03:32.739Z,2.13
2022-10-13T23:05:59.383Z,1.92
2022-10-13T23:08:25.984Z,2.40
2022-10-13T23:10:52.652Z,2.33
2022-10-13T23:13:19.237Z,1.88
2022-10-13T23:15:45.824Z,2.63
2022-10-13T23:18:12.773Z,2.30
2022-10-13T23:20:40.681Z,2.50
2022-10-13T23:23:07.632Z,2.50
2022-10-13T23:25:34.939Z,1.83
2022-10-13T23:28:01.804Z,2.25
2022-10-13T23:30:28.477Z,1.90
2022-10-13T23:32:55.156Z,1.95
2022-10-13T23:35:21.875Z,1.98
2022-10-13T23:37:48.500Z,1.73
2022-10-13T23:40:15.153Z,1.80
2022-10-13T23:42:41.735Z,1.90
2022-10-13T23:45:08.913Z,1.67
2022-10-13T23:47:35.500Z,2.13
2022-10-13T23:50:02.168Z,1.92
2022-10-13T23:52:28.805Z,2.10
2022-10-13T23:54:55.369Z,1.65
2022-10-13T23:57:22.396Z,1.70
2022-10-13T23:59:49.117Z,1.65
